aviador You're here:

KMHS Decoded Metar

MOUNT SHASTA in CA, USA
Report Time2017-12-15 13:56:00
UTC Time2017-12-15 14:11:19
Flight Rules vfr VFR
WindVRB at 06 kt
Visibility9999 m
Phenomena:N/A
Clouds:N/A
Expected CloudBase > 2,400 ft AGL from Temp-Dew spread
CeilingNone
Temp03°C (ISA -5)
Dew Point-3°C (65% RH)
AAT-1.5°C
QNH1024 hPa
Density Alt2,644 ft
Elevation3,537 ft
Report Wrong Elevation
Raw Report
METAR KMHS 151356Z AUTO VRB06KT 10SM CLR 03/M03 A3024 RMK AO2 SLP270
T00281033=

Extra information for KMHS:More info

Metar Taf Metar & Taf Last 4 Metars F.Rules Stats Wind Profile Meteogram Temp Stats Airport Information Weather charts Add Link Nearby VenuesMetar ALERT Operation Metar Decoded Social comments

AIRNAV info for KMHS